createdAt,value
2022-11-27T00:00:20.783Z,22.00
2022-11-27T00:01:20.720Z,23.10
2022-11-27T00:02:20.750Z,22.30
2022-11-27T00:03:20.857Z,22.10
2022-11-27T00:04:20.704Z,20.90
2022-11-27T00:05:20.672Z,21.90
2022-11-27T00:06:20.662Z,22.10
2022-11-27T00:07:20.779Z,21.70
2022-11-27T00:08:20.636Z,22.70
2022-11-27T00:09:20.694Z,23.10
2022-11-27T00:10:20.662Z,22.80
2022-11-27T00:11:20.635Z,22.20
2022-11-27T00:12:20.652Z,24.30
2022-11-27T00:13:20.647Z,22.30
2022-11-27T00:14:20.649Z,23.40
2022-11-27T00:15:20.596Z,24.60
2022-11-27T00:16:20.654Z,22.90
2022-11-27T00:17:20.624Z,26.10
2022-11-27T00:18:20.603Z,26.50
2022-11-27T00:19:20.616Z,25.50
2022-11-27T00:20:20.562Z,22.90
2022-11-27T00:21:21.376Z,15.90
2022-11-27T00:22:20.562Z,16.70
2022-11-27T00:23:20.520Z,17.90
2022-11-27T00:24:20.540Z,16.00
2022-11-27T00:25:20.536Z,15.40
2022-11-27T00:26:20.515Z,16.30
2022-11-27T00:27:20.552Z,15.10
2022-11-27T00:28:20.494Z,15.70
2022-11-27T00:29:20.505Z,14.80
2022-11-27T00:30:20.521Z,14.40
2022-11-27T00:31:20.541Z,15.80
2022-11-27T00:32:20.524Z,14.40
2022-11-27T00:33:20.490Z,14.50
2022-11-27T00:34:20.429Z,14.20
2022-11-27T00:35:20.450Z,14.10
2022-11-27T00:36:20.429Z,15.00
2022-11-27T00:37:20.442Z,14.20
2022-11-27T00:38:20.510Z,13.70
2022-11-27T00:39:20.411Z,14.80
2022-11-27T00:40:20.410Z,13.80
2022-11-27T00:41:20.393Z,14.80
2022-11-27T00:42:20.423Z,14.60
2022-11-27T00:43:20.405Z,13.90
2022-11-27T00:44:20.367Z,13.50
2022-11-27T00:45:20.361Z,13.30
2022-11-27T00:46:25.281Z,14.70
2022-11-27T00:47:22.394Z,14.10
2022-11-27T00:48:21.368Z,13.60
2022-11-27T00:49:20.388Z,14.30
2022-11-27T00:50:20.327Z,14.30
2022-11-27T00:51:20.308Z,14.10
2022-11-27T00:52:20.353Z,14.10
2022-11-27T00:53:20.298Z,13.50
2022-11-27T00:54:22.787Z,13.70
2022-11-27T00:55:21.269Z,12.90
2022-11-27T00:56:20.264Z,14.50
2022-11-27T00:57:20.271Z,14.40
2022-11-27T00:58:20.323Z,14.20
2022-11-27T00:59:20.316Z,14.50
2022-11-27T01:00:20.281Z,14.30
2022-11-27T01:01:20.311Z,14.60
2022-11-27T01:02:20.310Z,14.30
2022-11-27T01:03:20.215Z,15.70
2022-11-27T01:04:20.817Z,14.80
2022-11-27T01:05:20.190Z,15.70
2022-11-27T01:06:20.209Z,16.30
2022-11-27T01:07:20.229Z,15.80
2022-11-27T01:08:20.215Z,14.80
2022-11-27T01:09:20.207Z,16.00
2022-11-27T01:10:20.193Z,15.60
2022-11-27T01:11:20.171Z,16.60
2022-11-27T01:12:20.160Z,16.10
2022-11-27T01:13:20.147Z,16.20
2022-11-27T01:14:20.179Z,15.90
2022-11-27T01:15:20.117Z,16.10
2022-11-27T01:16:20.299Z,16.00
2022-11-27T01:17:20.122Z,16.50
2022-11-27T01:18:20.132Z,16.60
2022-11-27T01:19:20.159Z,16.20
2022-11-27T01:20:20.128Z,16.30
2022-11-27T01:21:20.097Z,17.70
2022-11-27T01:22:20.100Z,17.70
2022-11-27T01:23:20.069Z,17.40
2022-11-27T01:24:20.058Z,17.50
2022-11-27T01:25:21.943Z,16.30
2022-11-27T01:26:22.084Z,16.80
2022-11-27T01:27:20.113Z,16.50
2022-11-27T01:28:20.038Z,15.80
2022-11-27T01:29:20.005Z,16.90
2022-11-27T01:30:20.014Z,16.20
2022-11-27T01:31:20.098Z,16.70
2022-11-27T01:32:20.108Z,17.00
2022-11-27T01:33:19.961Z,17.50
2022-11-27T01:34:19.973Z,17.70
2022-11-27T01:35:19.958Z,15.90
2022-11-27T01:36:19.956Z,17.80
2022-11-27T01:37:19.996Z,17.10
2022-11-27T01:38:19.952Z,16.40
2022-11-27T01:39:19.945Z,16.80
2022-11-27T01:40:19.970Z,17.30
2022-11-27T01:41:19.928Z,16.70
2022-11-27T01:42:19.985Z,18.00
2022-11-27T01:43:19.925Z,17.40
2022-11-27T01:44:19.928Z,17.30
2022-11-27T01:45:19.902Z,19.40
2022-11-27T01:46:19.902Z,20.80
2022-11-27T01:47:20.875Z,19.60
2022-11-27T01:48:19.880Z,20.10
2022-11-27T01:49:19.918Z,21.40
2022-11-27T01:50:19.842Z,21.10
2022-11-27T01:51:19.852Z,21.40
2022-11-27T01:52:19.854Z,21.30
2022-11-27T01:53:19.854Z,21.90
2022-11-27T01:54:19.843Z,22.90
2022-11-27T01:55:19.809Z,23.40
2022-11-27T01:56:19.797Z,22.10
2022-11-27T01:57:19.809Z,23.60
2022-11-27T01:58:19.794Z,24.10
2022-11-27T01:59:19.797Z,23.30
2022-11-27T02:00:19.829Z,23.60
2022-11-27T02:01:19.816Z,23.90
2022-11-27T02:02:19.844Z,23.50
2022-11-27T02:03:19.811Z,24.20
2022-11-27T02:04:19.746Z,24.10
2022-11-27T02:05:19.754Z,23.90
2022-11-27T02:06:19.810Z,23.70
2022-11-27T02:07:19.777Z,24.80
2022-11-27T02:08:19.735Z,24.80
2022-11-27T02:09:19.699Z,24.20
2022-11-27T02:10:19.765Z,25.10
2022-11-27T02:11:19.765Z,25.20
2022-11-27T02:12:19.716Z,23.90
2022-11-27T02:13:19.721Z,24.10
2022-11-27T02:14:19.680Z,25.20
2022-11-27T02:15:19.672Z,24.40
2022-11-27T02:16:19.736Z,24.80
2022-11-27T02:17:19.689Z,25.30
2022-11-27T02:18:19.638Z,24.10
2022-11-27T02:19:19.686Z,26.00
2022-11-27T02:20:19.713Z,23.60
2022-11-27T02:21:19.662Z,25.30
2022-11-27T02:22:19.625Z,25.10
2022-11-27T02:23:19.596Z,26.40
2022-11-27T02:24:19.616Z,24.00
2022-11-27T02:25:23.942Z,25.30
2022-11-27T02:26:20.606Z,24.60
2022-11-27T02:27:19.607Z,24.40
2022-11-27T02:28:19.607Z,26.30
2022-11-27T02:29:19.567Z,25.70
2022-11-27T02:30:19.585Z,26.20
2022-11-27T02:31:19.687Z,25.70
2022-11-27T02:32:19.553Z,24.80
2022-11-27T02:33:51.513Z,25.70
2022-11-27T02:34:21.723Z,27.70
2022-11-27T02:35:19.519Z,27.20
2022-11-27T02:36:19.555Z,25.60
2022-11-27T02:37:19.507Z,26.70
2022-11-27T02:38:19.602Z,27.10
2022-11-27T02:39:19.507Z,25.40
2022-11-27T02:40:19.495Z,24.90
2022-11-27T02:41:19.465Z,24.70
2022-11-27T02:42:19.553Z,25.00
2022-11-27T02:43:20.364Z,24.80
2022-11-27T02:44:19.487Z,25.10
2022-11-27T02:45:19.475Z,27.40
2022-11-27T02:46:19.484Z,26.30
2022-11-27T02:47:19.436Z,26.50
2022-11-27T02:48:19.501Z,26.50
2022-11-27T02:49:19.412Z,26.20
2022-11-27T02:50:20.383Z,25.60
2022-11-27T02:51:19.401Z,26.70
2022-11-27T02:52:19.390Z,27.40
2022-11-27T02:53:19.395Z,27.20
2022-11-27T02:54:19.370Z,26.30
2022-11-27T02:55:19.367Z,28.10
2022-11-27T02:56:19.390Z,26.90
2022-11-27T02:57:19.352Z,26.60
2022-11-27T02:58:19.436Z,27.50
2022-11-27T02:59:19.359Z,25.00
2022-11-27T03:00:19.324Z,25.30
2022-11-27T03:01:19.395Z,26.10
2022-11-27T03:02:19.522Z,26.30
2022-11-27T03:03:19.407Z,25.80
2022-11-27T03:04:19.299Z,26.00
2022-11-27T03:05:19.290Z,25.20
2022-11-27T03:06:19.287Z,26.10
2022-11-27T03:07:19.354Z,25.50
2022-11-27T03:08:19.256Z,25.20
2022-11-27T03:09:19.266Z,27.00
2022-11-27T03:10:19.237Z,26.70
2022-11-27T03:11:19.242Z,25.80
2022-11-27T03:12:19.265Z,26.30
2022-11-27T03:13:19.231Z,25.70
2022-11-27T03:14:19.303Z,25.50
2022-11-27T03:15:19.215Z,25.80
2022-11-27T03:16:19.280Z,25.10
2022-11-27T03:17:19.219Z,26.00
2022-11-27T03:18:19.215Z,25.60
2022-11-27T03:19:19.195Z,25.00
2022-11-27T03:20:19.192Z,24.90
2022-11-27T03:21:19.201Z,24.40
2022-11-27T03:22:19.218Z,25.00
2022-11-27T03:23:19.195Z,24.10
2022-11-27T03:24:19.149Z,23.50
2022-11-27T03:25:19.130Z,26.10
2022-11-27T03:26:19.848Z,25.20
2022-11-27T03:27:19.155Z,25.00
2022-11-27T03:28:19.129Z,24.80
2022-11-27T03:29:19.108Z,24.50
2022-11-27T03:30:19.185Z,23.50
2022-11-27T03:31:19.114Z,24.10
2022-11-27T03:32:19.089Z,24.50
2022-11-27T03:33:19.089Z,23.00
2022-11-27T03:34:20.211Z,24.70
2022-11-27T03:35:20.046Z,22.80
2022-11-27T03:36:19.047Z,23.50
2022-11-27T03:37:19.058Z,24.40
2022-11-27T03:38:19.062Z,23.50
2022-11-27T03:39:19.050Z,23.90
2022-11-27T03:40:19.023Z,23.10
2022-11-27T03:41:19.007Z,23.00
2022-11-27T03:42:19.026Z,23.00
2022-11-27T03:43:18.994Z,21.90
2022-11-27T03:44:19.019Z,23.20
2022-11-27T03:45:19.783Z,23.40
2022-11-27T03:46:19.097Z,21.90
2022-11-27T03:47:19.036Z,21.90
2022-11-27T04:03:04.000Z,16.40
2022-11-27T04:04:03.932Z,20.20
2022-11-27T04:05:03.865Z,22.90
2022-11-27T04:06:05.002Z,23.20
2022-11-27T04:07:05.014Z,24.80
2022-11-27T04:08:05.048Z,23.00
2022-11-27T04:09:05.035Z,23.50
2022-11-27T04:10:04.999Z,23.80
2022-11-27T04:11:04.971Z,23.20
2022-11-27T04:12:04.975Z,23.00
2022-11-27T04:13:04.963Z,23.40
2022-11-27T04:14:04.951Z,22.70
2022-11-27T04:15:04.939Z,23.60
2022-11-27T04:16:05.028Z,23.00
2022-11-27T04:17:04.931Z,23.60
2022-11-27T04:18:04.932Z,23.40
2022-11-27T04:19:05.006Z,23.60
2022-11-27T04:20:04.897Z,23.70
2022-11-27T04:21:04.926Z,23.10
2022-11-27T04:22:04.906Z,22.70
2022-11-27T04:23:04.875Z,22.60
2022-11-27T04:24:04.886Z,23.50
2022-11-27T04:25:04.870Z,22.90
2022-11-27T04:26:04.864Z,23.10
2022-11-27T04:27:04.837Z,21.60
2022-11-27T04:28:04.893Z,21.70
2022-11-27T04:29:04.907Z,21.70
2022-11-27T04:30:04.821Z,23.40
2022-11-27T04:31:04.857Z,22.40
2022-11-27T04:32:04.816Z,23.30
2022-11-27T04:33:04.799Z,23.50
2022-11-27T04:34:04.809Z,24.10
2022-11-27T04:35:04.901Z,23.30
2022-11-27T04:36:04.785Z,23.00
2022-11-27T04:37:04.784Z,23.70
2022-11-27T04:38:04.773Z,22.90
2022-11-27T04:39:04.775Z,23.70
2022-11-27T04:40:04.775Z,22.80
2022-11-27T04:41:04.744Z,23.90
2022-11-27T04:42:04.726Z,23.80
2022-11-27T04:43:04.731Z,24.40
2022-11-27T04:44:04.715Z,24.50
2022-11-27T04:45:04.783Z,23.20
2022-11-27T04:46:04.690Z,23.20
2022-11-27T04:47:04.805Z,24.30
2022-11-27T04:48:04.699Z,24.10
2022-11-27T04:49:04.686Z,24.80
2022-11-27T04:50:04.675Z,24.70
2022-11-27T04:51:04.761Z,26.20
2022-11-27T04:52:05.683Z,27.00
2022-11-27T04:53:04.654Z,26.10
2022-11-27T04:54:04.658Z,26.10
2022-11-27T04:55:04.638Z,27.40
2022-11-27T04:56:04.651Z,27.90
2022-11-27T04:57:04.630Z,27.40
2022-11-27T04:58:04.621Z,27.70
2022-11-27T04:59:04.610Z,28.20
2022-11-27T05:00:04.664Z,28.10
2022-11-27T05:01:05.692Z,27.60
2022-11-27T05:02:04.618Z,27.70
2022-11-27T05:03:04.679Z,27.80
2022-11-27T05:04:04.575Z,27.30
2022-11-27T05:05:04.563Z,28.70
2022-11-27T05:06:04.551Z,28.30
2022-11-27T05:07:04.619Z,28.80
2022-11-27T05:08:04.577Z,28.90
2022-11-27T05:09:04.564Z,27.20
2022-11-27T05:10:04.526Z,26.70
2022-11-27T05:11:04.548Z,27.30
2022-11-27T05:12:04.509Z,28.40
2022-11-27T05:13:04.546Z,28.80
2022-11-27T05:14:04.515Z,28.80
2022-11-27T05:15:04.897Z,28.30
2022-11-27T05:16:05.576Z,28.80
2022-11-27T05:17:04.478Z,29.30
2022-11-27T05:18:04.471Z,29.90
2022-11-27T05:19:04.497Z,30.20
2022-11-27T05:20:04.463Z,29.60
2022-11-27T05:21:04.483Z,29.20
2022-11-27T05:22:04.457Z,30.10
2022-11-27T05:23:04.508Z,30.10
2022-11-27T05:24:04.455Z,34.70
2022-11-27T05:25:04.438Z,42.00
2022-11-27T05:26:04.443Z,43.10
2022-11-27T05:27:04.402Z,42.10
2022-11-27T05:28:04.411Z,39.90
2022-11-27T05:29:04.398Z,33.50
2022-11-27T05:30:04.397Z,31.60
2022-11-27T05:31:04.446Z,31.10
2022-11-27T05:32:04.388Z,30.00
2022-11-27T05:33:04.358Z,30.80
2022-11-27T05:34:05.121Z,30.10
2022-11-27T05:35:04.340Z,28.90
2022-11-27T05:36:04.351Z,30.10
2022-11-27T05:37:04.339Z,30.10
2022-11-27T05:38:04.393Z,31.20
2022-11-27T05:39:04.411Z,29.60
2022-11-27T05:40:04.309Z,28.90
2022-11-27T05:41:04.423Z,29.90
2022-11-27T05:42:04.289Z,29.70
2022-11-27T05:43:04.326Z,30.20
2022-11-27T05:44:04.264Z,31.30
2022-11-27T05:45:04.282Z,31.50
2022-11-27T05:46:04.293Z,30.30
2022-11-27T05:47:04.440Z,30.30
2022-11-27T05:48:04.287Z,29.60
2022-11-27T05:49:04.277Z,29.20
2022-11-27T05:50:04.313Z,29.80
2022-11-27T05:51:04.239Z,29.60
2022-11-27T05:52:04.251Z,29.00
2022-11-27T05:53:04.244Z,30.50
2022-11-27T05:54:04.197Z,29.70
2022-11-27T05:55:04.281Z,29.10
2022-11-27T05:56:36.090Z,29.20
2022-11-27T05:57:04.200Z,31.20
2022-11-27T05:58:04.175Z,31.30
2022-11-27T05:59:04.164Z,30.70
2022-11-27T06:00:04.184Z,29.40
2022-11-27T06:01:04.181Z,31.00
2022-11-27T06:02:04.189Z,29.70
2022-11-27T06:03:04.239Z,29.60
2022-11-27T06:04:04.133Z,31.00
2022-11-27T06:05:04.153Z,29.40
2022-11-27T06:06:04.134Z,30.30
2022-11-27T06:07:04.122Z,31.00
2022-11-27T06:08:04.096Z,28.60
2022-11-27T06:09:06.813Z,29.30
2022-11-27T06:10:06.107Z,27.50
2022-11-27T06:11:04.162Z,29.80
2022-11-27T06:12:04.065Z,30.30
2022-11-27T06:13:04.055Z,29.40
2022-11-27T06:14:04.045Z,29.60
2022-11-27T06:15:04.097Z,28.30
2022-11-27T06:16:04.089Z,28.40
2022-11-27T06:17:04.067Z,28.50
2022-11-27T06:18:04.038Z,27.80
2022-11-27T06:19:04.010Z,27.20
2022-11-27T06:20:04.036Z,27.90
2022-11-27T06:21:04.029Z,27.10
2022-11-27T06:22:04.000Z,28.20
2022-11-27T06:23:03.981Z,28.40
2022-11-27T06:24:04.627Z,28.30
2022-11-27T06:25:04.027Z,28.70
2022-11-27T06:26:04.000Z,27.40
2022-11-27T06:27:04.047Z,27.70
2022-11-27T06:28:03.942Z,27.60
2022-11-27T06:29:03.925Z,27.00
2022-11-27T06:30:04.918Z,28.00
2022-11-27T06:31:04.051Z,27.90
2022-11-27T06:32:04.047Z,28.30
2022-11-27T06:33:03.983Z,27.30
2022-11-27T06:34:03.927Z,28.00
2022-11-27T06:35:03.895Z,27.80
2022-11-27T06:36:03.883Z,28.10
2022-11-27T06:37:08.074Z,26.50
2022-11-27T06:38:04.858Z,26.80
2022-11-27T06:39:03.881Z,27.00
2022-11-27T06:40:03.880Z,28.10
2022-11-27T06:41:03.853Z,28.20
2022-11-27T06:42:03.868Z,26.60
2022-11-27T06:43:03.925Z,26.50
2022-11-27T06:44:03.857Z,27.10
2022-11-27T06:45:03.862Z,28.00
2022-11-27T06:46:03.930Z,27.00
2022-11-27T06:47:03.843Z,29.20
2022-11-27T06:48:03.872Z,29.60
2022-11-27T06:49:03.813Z,27.90
2022-11-27T06:50:04.999Z,28.60
2022-11-27T06:51:03.792Z,28.00
2022-11-27T06:52:04.662Z,26.90
2022-11-27T06:53:03.797Z,27.20
2022-11-27T06:54:03.752Z,26.70
2022-11-27T06:55:03.849Z,26.90
2022-11-27T06:56:03.783Z,29.30
2022-11-27T06:57:03.743Z,30.00
2022-11-27T06:58:04.775Z,31.30
2022-11-27T06:59:03.839Z,30.50
2022-11-27T07:00:03.851Z,37.30
2022-11-27T07:01:03.816Z,46.60
2022-11-27T07:02:03.822Z,40.30
2022-11-27T07:03:03.737Z,35.00
2022-11-27T07:04:03.760Z,31.90
2022-11-27T07:05:03.684Z,29.60
2022-11-27T07:06:04.697Z,29.80
2022-11-27T07:07:03.799Z,29.50
2022-11-27T07:08:03.772Z,29.80
2022-11-27T07:09:03.640Z,30.50
2022-11-27T07:10:03.620Z,33.40
2022-11-27T07:11:03.620Z,37.00
2022-11-27T07:12:03.629Z,48.40
2022-11-27T07:13:03.624Z,58.30
2022-11-27T07:14:03.646Z,100.90
2022-11-27T07:15:04.512Z,73.70
2022-11-27T07:16:04.700Z,61.00
2022-11-27T07:17:03.611Z,61.50
2022-11-27T07:18:03.574Z,62.40
2022-11-27T07:19:03.573Z,62.90
2022-11-27T07:20:03.588Z,57.30
2022-11-27T07:21:03.591Z,50.80
2022-11-27T07:22:03.609Z,47.80
2022-11-27T07:23:03.641Z,43.50
2022-11-27T07:24:03.618Z,40.90
2022-11-27T07:25:03.594Z,38.70
2022-11-27T07:26:03.522Z,39.20
2022-11-27T07:27:03.523Z,31.80
2022-11-27T07:28:03.508Z,39.10
2022-11-27T07:29:03.542Z,49.90
2022-11-27T07:30:03.510Z,51.90
2022-11-27T07:31:03.574Z,38.60
2022-11-27T07:32:03.508Z,45.10
2022-11-27T07:33:04.531Z,57.70
2022-11-27T07:34:06.905Z,55.40
2022-11-27T07:35:04.605Z,60.10
2022-11-27T07:36:03.492Z,59.60
2022-11-27T07:37:04.149Z,65.20
2022-11-27T07:38:03.474Z,73.80
2022-11-27T07:39:03.444Z,74.90
2022-11-27T07:40:03.844Z,62.80
2022-11-27T07:41:04.473Z,62.80
2022-11-27T07:42:36.552Z,70.60
2022-11-27T07:43:05.418Z,114.60
2022-11-27T07:44:04.148Z,90.90
2022-11-27T07:45:03.381Z,59.70
2022-11-27T07:46:03.517Z,62.40
2022-11-27T07:47:03.468Z,58.50
2022-11-27T07:48:03.362Z,101.30
2022-11-27T07:49:03.377Z,75.80
2022-11-27T07:50:03.373Z,67.60
2022-11-27T07:51:03.326Z,87.20
2022-11-27T07:52:03.346Z,82.80
2022-11-27T07:53:03.335Z,86.50
2022-11-27T07:54:03.330Z,84.50
2022-11-27T07:55:03.338Z,109.60
2022-11-27T07:56:03.316Z,93.90
2022-11-27T07:57:03.400Z,75.30
2022-11-27T07:58:03.467Z,92.60
2022-11-27T07:59:03.306Z,109.40
2022-11-27T08:00:03.286Z,117.10
2022-11-27T08:01:03.393Z,142.80
2022-11-27T08:02:03.257Z,92.60
2022-11-27T08:03:03.360Z,163.90
2022-11-27T08:04:03.322Z,174.50
2022-11-27T08:05:06.893Z,85.90
2022-11-27T08:06:04.308Z,189.70
2022-11-27T08:07:03.243Z,120.70
2022-11-27T08:08:03.330Z,64.20
2022-11-27T08:09:03.278Z,80.80
2022-11-27T08:10:03.209Z,41.70
2022-11-27T08:11:03.200Z,40.40
2022-11-27T08:12:03.202Z,34.30
2022-11-27T08:13:03.220Z,44.10
2022-11-27T08:14:03.267Z,40.60
2022-11-27T08:15:03.174Z,39.50
2022-11-27T08:16:03.245Z,53.60
2022-11-27T08:17:03.185Z,75.40
2022-11-27T08:18:03.166Z,290.10
2022-11-27T08:19:03.273Z,355.10
2022-11-27T08:20:03.158Z,186.40
2022-11-27T08:21:03.156Z,179.30
2022-11-27T08:22:03.163Z,173.30
2022-11-27T08:23:03.395Z,193.50
2022-11-27T08:24:03.187Z,133.70
2022-11-27T08:25:03.080Z,44.10
2022-11-27T08:26:03.111Z,51.10
2022-11-27T08:27:03.107Z,33.80
2022-11-27T08:28:03.148Z,27.90
2022-11-27T08:29:03.079Z,24.40
2022-11-27T08:30:03.110Z,29.20
2022-11-27T08:31:03.082Z,29.40
2022-11-27T08:32:03.136Z,31.60
2022-11-27T08:33:34.945Z,30.40
2022-11-27T08:34:03.050Z,29.70
2022-11-27T08:35:08.287Z,24.40
2022-11-27T08:36:04.073Z,48.70
2022-11-27T08:37:03.083Z,26.90
2022-11-27T08:38:02.988Z,26.40
2022-11-27T08:39:03.008Z,19.70
2022-11-27T08:40:03.045Z,19.00
2022-11-27T08:41:02.989Z,18.70
2022-11-27T08:42:02.958Z,25.90
2022-11-27T08:43:02.936Z,18.50
2022-11-27T08:44:06.794Z,26.80
2022-11-27T08:45:03.912Z,24.20
2022-11-27T08:46:03.025Z,25.80
2022-11-27T08:47:02.910Z,23.30
2022-11-27T08:48:02.906Z,18.60
2022-11-27T08:49:02.912Z,17.60
2022-11-27T08:50:02.898Z,18.80
2022-11-27T08:51:02.877Z,17.10
2022-11-27T08:52:02.946Z,18.30
2022-11-27T08:53:02.915Z,19.90
2022-11-27T08:54:02.858Z,22.90
2022-11-27T08:55:02.857Z,24.70
2022-11-27T08:56:02.839Z,15.00
2022-11-27T08:57:02.837Z,14.10
2022-11-27T08:58:02.845Z,14.00
2022-11-27T08:59:02.855Z,13.80
2022-11-27T09:00:02.857Z,12.50
2022-11-27T09:01:02.948Z,12.80
2022-11-27T09:02:02.837Z,15.00
2022-11-27T09:03:02.791Z,19.90
2022-11-27T09:04:02.840Z,16.30
2022-11-27T09:05:02.794Z,18.70
2022-11-27T09:06:02.772Z,14.30
2022-11-27T09:07:02.768Z,14.50
2022-11-27T09:08:02.883Z,12.50
2022-11-27T09:09:02.748Z,12.70
2022-11-27T09:10:02.748Z,11.10
2022-11-27T09:11:03.754Z,12.00
2022-11-27T09:12:02.701Z,15.90
2022-11-27T09:13:02.724Z,11.60
2022-11-27T09:14:02.746Z,11.40
2022-11-27T09:15:02.700Z,11.10
2022-11-27T09:16:02.728Z,12.70
2022-11-27T09:17:02.720Z,12.10
2022-11-27T09:18:02.684Z,12.50
2022-11-27T09:19:02.672Z,12.90
2022-11-27T09:20:02.686Z,13.00
2022-11-27T09:21:02.625Z,12.20
2022-11-27T09:22:03.674Z,13.00
2022-11-27T09:23:02.647Z,13.00
2022-11-27T09:24:02.697Z,12.20
2022-11-27T09:25:02.637Z,12.80
2022-11-27T09:26:02.612Z,12.80
2022-11-27T09:27:02.599Z,12.20
2022-11-27T09:28:02.587Z,11.90
2022-11-27T09:29:02.623Z,11.70
2022-11-27T09:30:02.606Z,11.80
2022-11-27T09:31:02.567Z,11.30
2022-11-27T09:32:02.756Z,11.40
2022-11-27T09:33:02.551Z,11.80
2022-11-27T09:34:02.542Z,11.00
2022-11-27T09:35:02.555Z,11.50
2022-11-27T09:36:02.518Z,12.10
2022-11-27T09:37:02.563Z,13.00
2022-11-27T09:38:02.562Z,13.00
2022-11-27T09:39:02.546Z,12.80
2022-11-27T09:40:02.615Z,12.40
2022-11-27T09:41:03.377Z,12.50
2022-11-27T09:42:03.475Z,11.60
2022-11-27T09:43:02.589Z,12.50
2022-11-27T09:44:02.484Z,10.70
2022-11-27T09:45:02.452Z,10.70
2022-11-27T09:46:02.483Z,10.50
2022-11-27T09:47:02.551Z,10.20
2022-11-27T09:48:02.438Z,10.40
2022-11-27T09:49:02.440Z,11.70
2022-11-27T09:50:02.410Z,11.00
2022-11-27T09:51:02.438Z,10.80
2022-11-27T09:52:03.268Z,11.10
2022-11-27T09:53:02.420Z,10.80
2022-11-27T09:54:02.389Z,10.60
2022-11-27T09:55:02.379Z,10.80
2022-11-27T09:56:02.443Z,10.40
2022-11-27T09:57:02.367Z,10.80
2022-11-27T09:58:02.378Z,9.90
2022-11-27T09:59:02.339Z,9.60
2022-11-27T10:00:02.339Z,9.90
2022-11-27T10:01:02.318Z,10.80
2022-11-27T10:02:02.469Z,10.50
2022-11-27T10:03:02.515Z,10.70
2022-11-27T10:04:02.327Z,11.60
2022-11-27T10:05:18.249Z,11.20
2022-11-27T10:06:04.286Z,11.50
2022-11-27T10:07:02.305Z,11.70
2022-11-27T10:08:06.698Z,11.70
2022-11-27T10:09:03.284Z,11.60
2022-11-27T10:10:02.412Z,11.60
2022-11-27T10:11:02.266Z,11.30
2022-11-27T10:12:02.349Z,10.70
2022-11-27T10:13:02.245Z,10.70
2022-11-27T10:14:03.033Z,10.80
2022-11-27T10:15:02.252Z,10.50
2022-11-27T10:16:02.222Z,9.60
2022-11-27T10:17:02.272Z,9.60
2022-11-27T10:18:02.192Z,11.70
2022-11-27T10:19:02.208Z,14.30
2022-11-27T10:20:02.182Z,11.10
2022-11-27T10:21:02.182Z,9.40
2022-11-27T10:22:02.177Z,9.80
2022-11-27T10:23:02.165Z,9.90
2022-11-27T10:24:02.183Z,9.10
2022-11-27T10:25:02.158Z,9.20
2022-11-27T10:26:02.149Z,9.90
2022-11-27T10:27:02.150Z,8.50
2022-11-27T10:28:02.190Z,8.90
2022-11-27T10:29:02.104Z,9.20
2022-11-27T10:30:02.175Z,9.00
2022-11-27T10:31:02.093Z,9.10
2022-11-27T10:32:02.119Z,9.60
2022-11-27T10:33:02.186Z,8.90
2022-11-27T10:34:02.075Z,8.50
2022-11-27T10:35:02.081Z,8.60
2022-11-27T10:36:02.095Z,8.60
2022-11-27T10:37:02.094Z,9.40
2022-11-27T10:38:06.543Z,9.10
2022-11-27T10:39:04.026Z,9.80
2022-11-27T10:40:02.016Z,10.40
2022-11-27T10:41:02.003Z,10.20
2022-11-27T10:42:02.048Z,10.30
2022-11-27T10:43:01.995Z,10.50
2022-11-27T10:44:02.072Z,10.00
2022-11-27T10:45:02.026Z,10.00
2022-11-27T10:46:02.162Z,10.00
2022-11-27T10:47:02.013Z,10.10
2022-11-27T10:48:02.003Z,9.80
2022-11-27T10:49:02.014Z,10.00
2022-11-27T10:50:01.948Z,9.70
2022-11-27T10:51:01.961Z,9.40
2022-11-27T10:52:01.946Z,8.80
2022-11-27T10:53:01.912Z,8.90
2022-11-27T10:54:01.929Z,8.90
2022-11-27T10:55:01.939Z,9.20
2022-11-27T10:56:01.973Z,9.40
2022-11-27T10:57:01.886Z,8.60
2022-11-27T10:58:01.884Z,9.50
2022-11-27T10:59:01.871Z,8.70
2022-11-27T11:00:01.952Z,8.40
2022-11-27T11:01:01.961Z,8.90
2022-11-27T11:02:01.967Z,9.70
2022-11-27T11:03:01.920Z,9.40
2022-11-27T11:04:10.170Z,9.30
2022-11-27T11:05:32.439Z,8.90
2022-11-27T11:06:19.886Z,8.80
2022-11-27T11:07:03.809Z,9.30
2022-11-27T11:08:01.864Z,7.90
2022-11-27T11:09:01.805Z,8.60
2022-11-27T11:10:01.821Z,7.70
2022-11-27T11:11:01.785Z,7.90
2022-11-27T11:12:01.785Z,7.40
2022-11-27T11:13:01.798Z,8.00
2022-11-27T11:14:01.801Z,9.90
2022-11-27T11:15:01.773Z,8.30
2022-11-27T11:16:01.836Z,7.30
2022-11-27T11:17:01.798Z,7.10
2022-11-27T11:18:01.747Z,7.80
2022-11-27T11:19:01.735Z,6.70
2022-11-27T11:20:01.728Z,6.70
2022-11-27T11:21:01.696Z,7.00
2022-11-27T11:22:01.683Z,7.00
2022-11-27T11:23:01.695Z,6.80
2022-11-27T11:24:01.684Z,7.20
2022-11-27T11:25:01.670Z,7.10
2022-11-27T11:26:01.662Z,7.60
2022-11-27T11:27:01.675Z,7.00
2022-11-27T11:28:01.673Z,7.30
2022-11-27T11:29:01.644Z,7.10
2022-11-27T11:30:01.753Z,7.30
2022-11-27T11:31:01.615Z,7.30
2022-11-27T11:32:01.797Z,7.70
2022-11-27T11:33:01.599Z,6.80
2022-11-27T11:34:01.596Z,6.80
2022-11-27T11:35:01.863Z,7.10
2022-11-27T11:36:01.656Z,6.80
2022-11-27T11:37:01.578Z,7.10
2022-11-27T11:38:01.748Z,7.00
2022-11-27T11:39:01.574Z,8.10
2022-11-27T11:40:01.584Z,7.60
2022-11-27T11:41:01.604Z,9.00
2022-11-27T11:42:01.555Z,8.80
2022-11-27T11:43:01.536Z,7.30
2022-11-27T11:44:01.552Z,7.00
2022-11-27T11:45:01.530Z,7.50
2022-11-27T11:46:01.606Z,7.90
2022-11-27T11:47:01.559Z,7.70
2022-11-27T11:48:01.692Z,7.70
2022-11-27T11:49:01.485Z,6.80
2022-11-27T11:50:01.470Z,6.90
2022-11-27T11:51:01.479Z,6.50
2022-11-27T11:52:01.491Z,6.30
2022-11-27T11:53:01.448Z,6.90
2022-11-27T11:54:01.439Z,6.90
2022-11-27T11:55:01.487Z,7.10
2022-11-27T11:56:01.401Z,8.10
2022-11-27T11:57:02.447Z,8.40
2022-11-27T11:58:01.617Z,8.50
2022-11-27T11:59:01.412Z,7.80
2022-11-27T12:00:01.389Z,7.80
2022-11-27T12:02:03.415Z,6.70
2022-11-27T12:03:02.410Z,7.20
2022-11-27T12:04:07.291Z,6.50
2022-11-27T12:05:02.479Z,7.60
2022-11-27T12:06:01.365Z,8.10
2022-11-27T12:07:01.354Z,7.50
2022-11-27T12:08:01.489Z,7.60
2022-11-27T12:09:01.341Z,7.80
2022-11-27T12:10:01.327Z,24.80
2022-11-27T12:11:01.353Z,54.10
2022-11-27T12:12:01.345Z,116.80
2022-11-27T12:13:01.307Z,81.70
2022-11-27T12:14:01.275Z,39.70
2022-11-27T12:15:01.323Z,8.20
2022-11-27T12:16:01.269Z,8.00
2022-11-27T12:17:01.363Z,8.80
2022-11-27T12:18:01.336Z,7.40
2022-11-27T12:19:02.240Z,6.90
2022-11-27T12:20:01.288Z,7.10
2022-11-27T12:21:01.331Z,6.20
2022-11-27T12:22:01.242Z,6.80
2022-11-27T12:23:01.224Z,7.50
2022-11-27T12:24:01.216Z,7.50
2022-11-27T12:25:01.234Z,7.50
2022-11-27T12:26:01.190Z,7.20
2022-11-27T12:27:01.198Z,6.60
2022-11-27T12:28:01.219Z,6.30
2022-11-27T12:29:01.234Z,6.10
2022-11-27T12:30:01.176Z,6.30
2022-11-27T12:31:01.151Z,6.00
2022-11-27T12:32:01.241Z,5.80
2022-11-27T12:33:01.166Z,5.20
2022-11-27T12:34:01.196Z,5.50
2022-11-27T12:35:01.148Z,6.70
2022-11-27T12:36:01.130Z,6.00
2022-11-27T12:37:01.196Z,6.40
2022-11-27T12:38:01.107Z,8.30
2022-11-27T12:39:01.158Z,6.70
2022-11-27T12:40:01.100Z,7.60
2022-11-27T12:41:01.085Z,7.30
2022-11-27T12:42:01.104Z,8.80
2022-11-27T12:43:01.089Z,7.80
2022-11-27T12:44:01.102Z,9.20
2022-11-27T12:45:01.042Z,6.90
2022-11-27T12:46:01.814Z,6.50
2022-11-27T12:47:01.039Z,7.40
2022-11-27T12:48:01.014Z,6.00
2022-11-27T12:49:01.086Z,5.90
2022-11-27T12:50:01.041Z,5.60
2022-11-27T12:51:01.021Z,6.20
2022-11-27T12:52:01.119Z,5.40
2022-11-27T12:53:01.078Z,5.80
2022-11-27T12:54:01.018Z,5.40
2022-11-27T12:55:00.992Z,5.90
2022-11-27T12:56:00.983Z,5.60
2022-11-27T12:57:00.956Z,5.40
2022-11-27T12:58:00.958Z,5.50
2022-11-27T12:59:00.960Z,5.30
2022-11-27T13:00:00.944Z,5.80
2022-11-27T13:01:00.994Z,6.10
2022-11-27T13:02:01.124Z,5.40
2022-11-27T13:03:01.047Z,5.20
2022-11-27T13:04:00.902Z,5.60
2022-11-27T13:05:00.934Z,5.10
2022-11-27T13:06:00.895Z,5.50
2022-11-27T13:07:00.911Z,6.20
2022-11-27T13:08:00.921Z,5.90
2022-11-27T13:09:00.947Z,6.20
2022-11-27T13:10:00.867Z,6.20
2022-11-27T13:11:00.869Z,6.50
2022-11-27T13:12:00.874Z,8.00
2022-11-27T13:13:00.891Z,7.60